Hovedside
METAR-TAF:

METAR-TAF

Lufthavner :

Riga internasjonale lufthavn

Riga, Latvia

breddegrad: 56-55N, lengdegrad: 023-58E, høyde over havet: 10 m

Gjeldene værobservasjon

Denne rapporten ble laget for 5 minutter siden, klokken 19:50 UTC
Vind 4 kt fra Øst-sørøst
Temperatur 17°C
Luftfuktighet 88%
Trykk 1019 hPa
Sikt 10 km eller mer
ingen skyer under 1500 m og ingen bygeskyer

METAR: EVRA 161950Z 12004KT CAVOK 17/15 Q1019 NOSIG

Tid: 22:55 (19:55 UTC)

Varsel

Denne rapporten ble laget for 2 timer og 55 minutter siden, klokken 17:00 UTC
Varsel gyldig fra 16. klokken 18 UTC til 17. klokken 18 UTC
Vind 2 kt fra skiftende retning
Sikt 10 km eller mer
Spredte skyer i en høyde av 3000 ft
Midlertidig
fra 16. klokken 21 UTC til 17. klokken 04 UTC
Sikt: 0700 m
Brutte skyer i en høyde av 200 ft
tåke
Blir
fra 17. klokken 06 UTC til 17. klokken 08 UTC
Vind 7 kt fra Sør-sørøst

TAF: EVRA 161700Z 1618/1718 VRB02KT 9999 SCT030 TEMPO 1621/1704 0700 FG BKN002 BECMG 1706/1708 15007KT

Værobservasjoner og værvarsel for over 4000 flyplasser (METAR- og TAF-rapporter).

Tilgjengelige stasjoner er representert av de røde og gule prikkene på kartet.

Hold musepekeren over prikken for å se navnet på stasjonen.

Klikk så for å se værobservasjoner og -varsler.

For å forandre kartet kan du klikke på den grønne knappen med svart kryss for å zoome inn, på den grønne knappen med strek for å zoome ut, eller på de grønne pilene for å se tilstøtende kart.


METAR-TAF: